Terminal Aerodrome Forecast
Issued by NWS

Current Version | Previous Version | Graphics & Text | Print | Product List | Glossary On
Versions: 1 2 3 4 5 6 7 8 9 10 11 12 13 14 15 16 17 18 19
000
FTUS41 KILN 211700
TAFLUK
TAF
KLUK 211720Z 2118/2218 23010KT P6SM FEW070 BKN150
     FM212300 23005KT P6SM VCSH SCT050 OVC100
     FM220600 27006KT P6SM -SHRA SCT015 OVC050
     FM221100 31010KT P6SM OVC022
     FM221400 33014G22KT P6SM SCT035=

USA.gov is the U.S. government's official web portal to all federal, state and local government web resources and services.